Check out our new PWSWeather beta!
PWSweather.com
Personal Weather Stations
Station Observations
METEOC500
Santo Antonio, FunchalPT 2020

Santo AntonioFunchalPT 2020

Lat: 32.678227, Lon: -16.945054

Elevation: 1669.94751

Station Type: WH Series

High Low Average
Temperature 67.8°F19.9°C 57.2°F14.0°C 61.0°F16.1°C
Dew Point 57.7°F14.3°C 48.7°F9.3°C 53.3°F11.8°C
Winds 11.0 mph 17.7 kmh Calm Calm 3.0 mph WSW4.8 kmh WSW
Wind Gusts 17.4 mph28.0 kmh 2.5 mph4.0 kmh 9.0 mph14.5 kmh
Humidity 83% 63% 76%
Pressure 30.31 in1026.4 mb 30.19 in1022.4 mb -
Precipitation 0.00 in0.0 mm - -
Hour Temp Dew Point Humidity Winds Wind Gusts Pressure Precip Precip Rate Daily Precip Total
12:11 AM 59.7°F15.4°C 50.0°F10.0°C 70% Calm Calm 10.1 mph16.3 kmh 30.31 in1026.4 mb 0.00 in0.0 mm 0.00 in0.0 mm 0.00 in0.0 mm
12:26 AM 59.4°F15.2°C 50.0°F10.0°C 71% Calm Calm 7.6 mph12.2 kmh 30.31 in1026.4 mb 0.00 in0.0 mm 0.00 in0.0 mm 0.00 in0.0 mm
12:41 AM 59.2°F15.1°C 49.8°F9.9°C 71% 2.2 mph NNW3.5 kmh NNW 10.1 mph16.3 kmh 30.31 in1026.4 mb 0.00 in0.0 mm 0.00 in0.0 mm 0.00 in0.0 mm
12:56 AM 59.0°F15.0°C 50.0°F10.0°C 72% 0.2 mph SW0.3 kmh SW 7.6 mph12.2 kmh 30.31 in1026.4 mb 0.00 in0.0 mm 0.00 in0.0 mm 0.00 in0.0 mm
01:11 AM 58.8°F14.9°C 49.5°F9.7°C 71% 1.3 mph NW2.1 kmh NW 10.1 mph16.3 kmh 30.30 in1026.1 mb 0.00 in0.0 mm 0.00 in0.0 mm 0.00 in0.0 mm
01:26 AM 58.8°F14.9°C 48.7°F9.3°C 69% 4.0 mph NW6.4 kmh NW 10.1 mph16.3 kmh 30.30 in1026.1 mb 0.00 in0.0 mm 0.00 in0.0 mm 0.00 in0.0 mm
01:41 AM 58.6°F14.8°C 49.6°F9.8°C 72% 4.0 mph N6.4 kmh N 7.6 mph12.2 kmh 30.30 in1026.1 mb 0.00 in0.0 mm 0.00 in0.0 mm 0.00 in0.0 mm
01:56 AM 58.3°F14.6°C 49.3°F9.6°C 72% 1.3 mph SSW2.1 kmh SSW 7.6 mph12.2 kmh 30.29 in1025.7 mb 0.00 in0.0 mm 0.00 in0.0 mm 0.00 in0.0 mm
02:11 AM 58.5°F14.7°C 48.7°F9.3°C 70% 2.9 mph NW4.7 kmh NW 7.6 mph12.2 kmh 30.29 in1025.7 mb 0.00 in0.0 mm 0.00 in0.0 mm 0.00 in0.0 mm
02:26 AM 58.8°F14.9°C 49.8°F9.9°C 72% 3.4 mph N5.5 kmh N 7.6 mph12.2 kmh 30.29 in1025.7 mb 0.00 in0.0 mm 0.00 in0.0 mm 0.00 in0.0 mm
02:41 AM 58.6°F14.8°C 50.7°F10.4°C 75% 11.0 mph NNW17.7 kmh NNW 12.5 mph20.1 kmh 30.29 in1025.7 mb 0.00 in0.0 mm 0.00 in0.0 mm 0.00 in0.0 mm
03:13 AM 58.3°F14.6°C 50.4°F10.2°C 75% 5.4 mph NW8.7 kmh NW 10.1 mph16.3 kmh 30.28 in1025.4 mb 0.00 in0.0 mm 0.00 in0.0 mm 0.00 in0.0 mm
03:44 AM 58.6°F14.8°C 51.1°F10.6°C 76% 4.0 mph NNW6.4 kmh NNW 7.6 mph12.2 kmh 30.28 in1025.4 mb 0.00 in0.0 mm 0.00 in0.0 mm 0.00 in0.0 mm
04:14 AM 57.2°F14.0°C 50.7°F10.4°C 79% 3.1 mph NNW5.0 kmh NNW 12.5 mph20.1 kmh 30.27 in1025.1 mb 0.00 in0.0 mm 0.00 in0.0 mm 0.00 in0.0 mm
04:29 AM 57.4°F14.1°C 50.9°F10.5°C 79% 4.5 mph NNW7.2 kmh NNW 10.1 mph16.3 kmh 30.27 in1025.1 mb 0.00 in0.0 mm 0.00 in0.0 mm 0.00 in0.0 mm
04:44 AM 57.7°F14.3°C 50.5°F10.3°C 77% 4.7 mph N7.6 kmh N 10.1 mph16.3 kmh 30.27 in1025.1 mb 0.00 in0.0 mm 0.00 in0.0 mm 0.00 in0.0 mm
04:59 AM 57.9°F14.4°C 51.4°F10.8°C 79% 4.9 mph NNW7.9 kmh NNW 7.6 mph12.2 kmh 30.27 in1025.1 mb 0.00 in0.0 mm 0.00 in0.0 mm 0.00 in0.0 mm
05:14 AM 58.1°F14.5°C 51.3°F10.7°C 78% 3.4 mph N5.5 kmh N 10.1 mph16.3 kmh 30.27 in1025.1 mb 0.00 in0.0 mm 0.00 in0.0 mm 0.00 in0.0 mm
05:29 AM 58.3°F14.6°C 51.4°F10.8°C 78% Calm Calm 7.6 mph12.2 kmh 30.28 in1025.4 mb 0.00 in0.0 mm 0.00 in0.0 mm 0.00 in0.0 mm
05:44 AM 58.3°F14.6°C 51.4°F10.8°C 78% 3.4 mph NW5.5 kmh NW 10.1 mph16.3 kmh 30.27 in1025.1 mb 0.00 in0.0 mm 0.00 in0.0 mm 0.00 in0.0 mm
05:59 AM 58.3°F14.6°C 51.1°F10.6°C 77% 5.6 mph NNW9.0 kmh NNW 10.1 mph16.3 kmh 30.27 in1025.1 mb 0.00 in0.0 mm 0.00 in0.0 mm 0.00 in0.0 mm
06:14 AM 58.1°F14.5°C 50.5°F10.3°C 76% 2.5 mph N4.0 kmh N 12.5 mph20.1 kmh 30.27 in1025.1 mb 0.00 in0.0 mm 0.00 in0.0 mm 0.00 in0.0 mm
06:29 AM 58.3°F14.6°C 51.1°F10.6°C 77% 4.0 mph NW6.4 kmh NW 12.5 mph20.1 kmh 30.27 in1025.1 mb 0.00 in0.0 mm 0.00 in0.0 mm 0.00 in0.0 mm
06:44 AM 58.3°F14.6°C 51.1°F10.6°C 77% 3.4 mph NNW5.5 kmh NNW 4.9 mph7.9 kmh 30.27 in1025.1 mb 0.00 in0.0 mm 0.00 in0.0 mm 0.00 in0.0 mm
06:59 AM 58.5°F14.7°C 51.6°F10.9°C 78% 3.1 mph NNW5.0 kmh NNW 7.6 mph12.2 kmh 30.27 in1025.1 mb 0.00 in0.0 mm 0.00 in0.0 mm 0.00 in0.0 mm
07:14 AM 58.5°F14.7°C 52.0°F11.1°C 79% 4.9 mph N7.9 kmh N 10.1 mph16.3 kmh 30.28 in1025.4 mb 0.00 in0.0 mm 0.00 in0.0 mm 0.00 in0.0 mm
07:29 AM 58.3°F14.6°C 51.4°F10.8°C 78% 1.8 mph NNW2.9 kmh NNW 7.6 mph12.2 kmh 30.27 in1025.1 mb 0.00 in0.0 mm 0.00 in0.0 mm 0.00 in0.0 mm
07:44 AM 58.3°F14.6°C 51.4°F10.8°C 78% 2.9 mph NW4.7 kmh NW 7.6 mph12.2 kmh 30.27 in1025.1 mb 0.00 in0.0 mm 0.00 in0.0 mm 0.00 in0.0 mm
07:59 AM 58.5°F14.7°C 51.6°F10.9°C 78% Calm Calm 4.9 mph7.9 kmh 30.28 in1025.4 mb 0.00 in0.0 mm 0.00 in0.0 mm 0.00 in0.0 mm
08:14 AM 58.5°F14.7°C 51.6°F10.9°C 78% 4.7 mph NNW7.6 kmh NNW 7.6 mph12.2 kmh 30.29 in1025.7 mb 0.00 in0.0 mm 0.00 in0.0 mm 0.00 in0.0 mm
08:29 AM 58.8°F14.9°C 52.0°F11.1°C 78% 6.3 mph NNW10.1 kmh NNW 7.6 mph12.2 kmh 30.29 in1025.7 mb 0.00 in0.0 mm 0.00 in0.0 mm 0.00 in0.0 mm
08:44 AM 59.5°F15.3°C 53.1°F11.7°C 79% Calm Calm 10.1 mph16.3 kmh 30.30 in1026.1 mb 0.00 in0.0 mm 0.00 in0.0 mm 0.00 in0.0 mm
08:59 AM 60.3°F15.7°C 53.1°F11.7°C 77% Calm Calm 4.9 mph7.9 kmh 30.30 in1026.1 mb 0.00 in0.0 mm 0.00 in0.0 mm 0.00 in0.0 mm
09:14 AM 61.3°F16.3°C 53.8°F12.1°C 76% Calm Calm 2.5 mph4.0 kmh 30.30 in1026.1 mb 0.00 in0.0 mm 0.00 in0.0 mm 0.00 in0.0 mm
09:29 AM 61.9°F16.6°C 54.7°F12.6°C 77% 1.3 mph S2.1 kmh S 4.9 mph7.9 kmh 30.30 in1026.1 mb 0.00 in0.0 mm 0.00 in0.0 mm 0.00 in0.0 mm
09:44 AM 61.9°F16.6°C 54.3°F12.4°C 76% 0.7 mph ESE1.1 kmh ESE 4.9 mph7.9 kmh 30.30 in1026.1 mb 0.00 in0.0 mm 0.00 in0.0 mm 0.00 in0.0 mm
09:59 AM 61.9°F16.6°C 54.7°F12.6°C 77% Calm Calm 4.9 mph7.9 kmh 30.30 in1026.1 mb 0.00 in0.0 mm 0.00 in0.0 mm 0.00 in0.0 mm
10:14 AM 62.1°F16.7°C 54.3°F12.4°C 76% Calm Calm 4.9 mph7.9 kmh 30.31 in1026.4 mb 0.00 in0.0 mm 0.00 in0.0 mm 0.00 in0.0 mm
10:29 AM 62.8°F17.1°C 53.2°F11.8°C 71% 4.7 mph SE7.6 kmh SE 10.1 mph16.3 kmh 30.30 in1026.1 mb 0.00 in0.0 mm 0.00 in0.0 mm 0.00 in0.0 mm
10:44 AM 64.6°F18.1°C 55.4°F13.0°C 72% 1.6 mph S2.6 kmh S 12.5 mph20.1 kmh 30.30 in1026.1 mb 0.00 in0.0 mm 0.00 in0.0 mm 0.00 in0.0 mm
10:59 AM 64.6°F18.1°C 55.8°F13.2°C 73% 5.4 mph SE8.7 kmh SE 10.1 mph16.3 kmh 30.30 in1026.1 mb 0.00 in0.0 mm 0.00 in0.0 mm 0.00 in0.0 mm
11:14 AM 63.7°F17.6°C 55.2°F12.9°C 74% 8.5 mph SE13.7 kmh SE 10.1 mph16.3 kmh 30.30 in1026.1 mb 0.00 in0.0 mm 0.00 in0.0 mm 0.00 in0.0 mm
11:29 AM 63.5°F17.5°C 54.7°F12.6°C 73% 3.4 mph SE5.5 kmh SE 12.5 mph20.1 kmh 30.29 in1025.7 mb 0.00 in0.0 mm 0.00 in0.0 mm 0.00 in0.0 mm
11:44 AM 63.5°F17.5°C 55.0°F12.8°C 74% 1.3 mph S2.1 kmh S 10.1 mph16.3 kmh 30.29 in1025.7 mb 0.00 in0.0 mm 0.00 in0.0 mm 0.00 in0.0 mm
11:59 AM 63.5°F17.5°C 54.3°F12.4°C 72% 1.6 mph WSW2.6 kmh WSW 10.1 mph16.3 kmh 30.28 in1025.4 mb 0.00 in0.0 mm 0.00 in0.0 mm 0.00 in0.0 mm
12:14 PM 63.9°F17.7°C 54.3°F12.4°C 71% 2.9 mph SSE4.7 kmh SSE 12.5 mph20.1 kmh 30.27 in1025.1 mb 0.00 in0.0 mm 0.00 in0.0 mm 0.00 in0.0 mm
12:29 PM 64.6°F18.1°C 54.1°F12.3°C 69% 3.8 mph SSE6.1 kmh SSE 7.6 mph12.2 kmh 30.26 in1024.7 mb 0.00 in0.0 mm 0.00 in0.0 mm 0.00 in0.0 mm
12:44 PM 65.1°F18.4°C 54.0°F12.2°C 67% 4.7 mph SE7.6 kmh SE 10.1 mph16.3 kmh 30.25 in1024.4 mb 0.00 in0.0 mm 0.00 in0.0 mm 0.00 in0.0 mm
12:59 PM 65.3°F18.5°C 54.9°F12.7°C 69% 8.1 mph SE13.0 kmh SE 10.1 mph16.3 kmh 30.24 in1024.0 mb 0.00 in0.0 mm 0.00 in0.0 mm 0.00 in0.0 mm
01:14 PM 65.5°F18.6°C 54.7°F12.6°C 68% 2.9 mph S4.7 kmh S 10.1 mph16.3 kmh 30.24 in1024.0 mb 0.00 in0.0 mm 0.00 in0.0 mm 0.00 in0.0 mm
01:29 PM 65.7°F18.7°C 54.9°F12.7°C 68% 5.6 mph SSE9.0 kmh SSE 10.1 mph16.3 kmh 30.23 in1023.7 mb 0.00 in0.0 mm 0.00 in0.0 mm 0.00 in0.0 mm
01:44 PM 66.2°F19.0°C 54.5°F12.5°C 66% 4.7 mph SW7.6 kmh SW 12.5 mph20.1 kmh 30.22 in1023.4 mb 0.00 in0.0 mm 0.00 in0.0 mm 0.00 in0.0 mm
01:59 PM 66.7°F19.3°C 55.0°F12.8°C 66% 7.2 mph SE11.6 kmh SE 15.0 mph24.1 kmh 30.22 in1023.4 mb 0.00 in0.0 mm 0.00 in0.0 mm 0.00 in0.0 mm
02:14 PM 67.3°F19.6°C 55.9°F13.3°C 67% 0.9 mph S1.4 kmh S 12.5 mph20.1 kmh 30.22 in1023.4 mb 0.00 in0.0 mm 0.00 in0.0 mm 0.00 in0.0 mm
02:29 PM 67.8°F19.9°C 54.7°F12.6°C 63% 3.8 mph SSW6.1 kmh SSW 17.4 mph28.0 kmh 30.22 in1023.4 mb 0.00 in0.0 mm 0.00 in0.0 mm 0.00 in0.0 mm
02:44 PM 67.8°F19.9°C 57.7°F14.3°C 70% 3.8 mph SE6.1 kmh SE 12.5 mph20.1 kmh 30.21 in1023.0 mb 0.00 in0.0 mm 0.00 in0.0 mm 0.00 in0.0 mm
02:59 PM 66.7°F19.3°C 56.7°F13.7°C 70% 0.7 mph SSE1.1 kmh SSE 12.5 mph20.1 kmh 30.21 in1023.0 mb 0.00 in0.0 mm 0.00 in0.0 mm 0.00 in0.0 mm
03:14 PM 65.5°F18.6°C 56.3°F13.5°C 72% 1.3 mph SSW2.1 kmh SSW 12.5 mph20.1 kmh 30.21 in1023.0 mb 0.00 in0.0 mm 0.00 in0.0 mm 0.00 in0.0 mm
03:29 PM 64.4°F18.0°C 55.9°F13.3°C 74% 4.7 mph SSW7.6 kmh SSW 10.1 mph16.3 kmh 30.20 in1022.7 mb 0.00 in0.0 mm 0.00 in0.0 mm 0.00 in0.0 mm
03:44 PM 64.0°F17.8°C 55.2°F12.9°C 73% 1.6 mph SSE2.6 kmh SSE 10.1 mph16.3 kmh 30.20 in1022.7 mb 0.00 in0.0 mm 0.00 in0.0 mm 0.00 in0.0 mm
03:59 PM 64.6°F18.1°C 55.4°F13.0°C 72% 2.2 mph SSW3.5 kmh SSW 10.1 mph16.3 kmh 30.19 in1022.4 mb 0.00 in0.0 mm 0.00 in0.0 mm 0.00 in0.0 mm
04:14 PM 65.1°F18.4°C 55.9°F13.3°C 72% 1.6 mph S2.6 kmh S 7.6 mph12.2 kmh 30.20 in1022.7 mb 0.00 in0.0 mm 0.00 in0.0 mm 0.00 in0.0 mm
04:29 PM 64.6°F18.1°C 56.1°F13.4°C 74% 2.2 mph S3.5 kmh S 10.1 mph16.3 kmh 30.19 in1022.4 mb 0.00 in0.0 mm 0.00 in0.0 mm 0.00 in0.0 mm
04:44 PM 63.9°F17.7°C 55.8°F13.2°C 75% 3.1 mph SSW5.0 kmh SSW 7.6 mph12.2 kmh 30.19 in1022.4 mb 0.00 in0.0 mm 0.00 in0.0 mm 0.00 in0.0 mm
04:59 PM 63.5°F17.5°C 55.8°F13.2°C 76% 1.3 mph SSW2.1 kmh SSW 7.6 mph12.2 kmh 30.19 in1022.4 mb 0.00 in0.0 mm 0.00 in0.0 mm 0.00 in0.0 mm
05:14 PM 63.1°F17.3°C 55.8°F13.2°C 77% 4.7 mph SE7.6 kmh SE 7.6 mph12.2 kmh 30.19 in1022.4 mb 0.00 in0.0 mm 0.00 in0.0 mm 0.00 in0.0 mm
05:29 PM 63.0°F17.2°C 55.6°F13.1°C 77% 0.2 mph SSW0.3 kmh SSW 7.6 mph12.2 kmh 30.19 in1022.4 mb 0.00 in0.0 mm 0.00 in0.0 mm 0.00 in0.0 mm
05:44 PM 62.6°F17.0°C 55.9°F13.3°C 79% Calm Calm 7.6 mph12.2 kmh 30.19 in1022.4 mb 0.00 in0.0 mm 0.00 in0.0 mm 0.00 in0.0 mm
05:59 PM 62.1°F16.7°C 55.4°F13.0°C 79% Calm Calm 4.9 mph7.9 kmh 30.19 in1022.4 mb 0.00 in0.0 mm 0.00 in0.0 mm 0.00 in0.0 mm
06:14 PM 61.7°F16.5°C 55.0°F12.8°C 79% Calm Calm 4.9 mph7.9 kmh 30.19 in1022.4 mb 0.00 in0.0 mm 0.00 in0.0 mm 0.00 in0.0 mm
06:29 PM 61.3°F16.3°C 55.0°F12.8°C 80% Calm Calm 2.5 mph4.0 kmh 30.19 in1022.4 mb 0.00 in0.0 mm 0.00 in0.0 mm 0.00 in0.0 mm
06:44 PM 61.2°F16.2°C 54.9°F12.7°C 80% Calm Calm 2.5 mph4.0 kmh 30.19 in1022.4 mb 0.00 in0.0 mm 0.00 in0.0 mm 0.00 in0.0 mm
06:59 PM 60.8°F16.0°C 54.9°F12.7°C 81% 2.5 mph NW4.0 kmh NW 2.5 mph4.0 kmh 30.19 in1022.4 mb 0.00 in0.0 mm 0.00 in0.0 mm 0.00 in0.0 mm
07:14 PM 60.4°F15.8°C 54.5°F12.5°C 81% 0.2 mph N0.3 kmh N 4.9 mph7.9 kmh 30.20 in1022.7 mb 0.00 in0.0 mm 0.00 in0.0 mm 0.00 in0.0 mm
07:29 PM 59.9°F15.5°C 54.1°F12.3°C 81% 2.5 mph N4.0 kmh N 10.1 mph16.3 kmh 30.20 in1022.7 mb 0.00 in0.0 mm 0.00 in0.0 mm 0.00 in0.0 mm
07:44 PM 59.5°F15.3°C 54.0°F12.2°C 82% 3.1 mph NNW5.0 kmh NNW 7.6 mph12.2 kmh 30.20 in1022.7 mb 0.00 in0.0 mm 0.00 in0.0 mm 0.00 in0.0 mm
07:59 PM 59.4°F15.2°C 53.8°F12.1°C 82% 4.5 mph NNW7.2 kmh NNW 7.6 mph12.2 kmh 30.20 in1022.7 mb 0.00 in0.0 mm 0.00 in0.0 mm 0.00 in0.0 mm
08:14 PM 59.4°F15.2°C 54.1°F12.3°C 83% 3.8 mph NW6.1 kmh NW 7.6 mph12.2 kmh 30.21 in1023.0 mb 0.00 in0.0 mm 0.00 in0.0 mm 0.00 in0.0 mm
08:29 PM 59.2°F15.1°C 54.0°F12.2°C 83% 4.0 mph NNW6.4 kmh NNW 7.6 mph12.2 kmh 30.21 in1023.0 mb 0.00 in0.0 mm 0.00 in0.0 mm 0.00 in0.0 mm
08:44 PM 59.0°F15.0°C 53.6°F12.0°C 82% 6.9 mph NNW11.1 kmh NNW 10.1 mph16.3 kmh 30.21 in1023.0 mb 0.00 in0.0 mm 0.00 in0.0 mm 0.00 in0.0 mm
08:59 PM 59.0°F15.0°C 53.6°F12.0°C 82% 4.9 mph N7.9 kmh N 7.6 mph12.2 kmh 30.21 in1023.0 mb 0.00 in0.0 mm 0.00 in0.0 mm 0.00 in0.0 mm
09:14 PM 59.2°F15.1°C 54.0°F12.2°C 83% 6.0 mph NNW9.7 kmh NNW 10.1 mph16.3 kmh 30.21 in1023.0 mb 0.00 in0.0 mm 0.00 in0.0 mm 0.00 in0.0 mm
09:29 PM 59.4°F15.2°C 54.1°F12.3°C 83% 3.8 mph NNW6.1 kmh NNW 10.1 mph16.3 kmh 30.22 in1023.4 mb 0.00 in0.0 mm 0.00 in0.0 mm 0.00 in0.0 mm
09:44 PM 59.4°F15.2°C 54.1°F12.3°C 83% 3.1 mph NNW5.0 kmh NNW 7.6 mph12.2 kmh 30.22 in1023.4 mb 0.00 in0.0 mm 0.00 in0.0 mm 0.00 in0.0 mm
09:59 PM 59.5°F15.3°C 54.0°F12.2°C 82% 3.4 mph NNW5.5 kmh NNW 4.9 mph7.9 kmh 30.22 in1023.4 mb 0.00 in0.0 mm 0.00 in0.0 mm 0.00 in0.0 mm
10:14 PM 59.5°F15.3°C 54.0°F12.2°C 82% 3.4 mph NNW5.5 kmh NNW 7.6 mph12.2 kmh 30.22 in1023.4 mb 0.00 in0.0 mm 0.00 in0.0 mm 0.00 in0.0 mm
10:29 PM 59.4°F15.2°C 53.8°F12.1°C 82% 4.7 mph N7.6 kmh N 7.6 mph12.2 kmh 30.22 in1023.4 mb 0.00 in0.0 mm 0.00 in0.0 mm 0.00 in0.0 mm
10:44 PM 59.0°F15.0°C 53.8°F12.1°C 83% 4.5 mph NNW7.2 kmh NNW 7.6 mph12.2 kmh 30.22 in1023.4 mb 0.00 in0.0 mm 0.00 in0.0 mm 0.00 in0.0 mm
10:59 PM 58.6°F14.8°C 53.4°F11.9°C 83% 4.0 mph NNW6.4 kmh NNW 7.6 mph12.2 kmh 30.21 in1023.0 mb 0.00 in0.0 mm 0.00 in0.0 mm 0.00 in0.0 mm
11:14 PM 58.5°F14.7°C 53.2°F11.8°C 83% 4.0 mph NNW6.4 kmh NNW 10.1 mph16.3 kmh 30.21 in1023.0 mb 0.00 in0.0 mm 0.00 in0.0 mm 0.00 in0.0 mm
11:29 PM 58.3°F14.6°C 53.1°F11.7°C 83% 4.9 mph NNW7.9 kmh NNW 10.1 mph16.3 kmh 30.21 in1023.0 mb 0.00 in0.0 mm 0.00 in0.0 mm 0.00 in0.0 mm
11:45 PM 58.3°F14.6°C 53.1°F11.7°C 83% 3.4 mph NNW5.5 kmh NNW 10.1 mph16.3 kmh 30.20 in1022.7 mb 0.00 in0.0 mm 0.00 in0.0 mm 0.00 in0.0 mm